createdAt,value
2022-11-30T00:01:34.299Z,100437.84
2022-11-30T00:04:02.806Z,100431.06
2022-11-30T00:06:30.260Z,100425.97
2022-11-30T00:08:58.532Z,100427.69
2022-11-30T00:11:30.069Z,100431.88
2022-11-30T00:14:03.361Z,100433.59
2022-11-30T00:16:31.244Z,100429.00
2022-11-30T00:18:59.337Z,100441.97
2022-11-30T00:21:26.818Z,100434.84
2022-11-30T00:23:54.215Z,100445.25
2022-11-30T00:26:23.100Z,100430.72
2022-11-30T00:28:51.020Z,100436.94
2022-11-30T00:31:20.301Z,100438.59
2022-11-30T00:33:47.724Z,100440.47
2022-11-30T00:36:18.381Z,100448.25
2022-11-30T00:38:46.061Z,100451.00
2022-11-30T00:41:15.259Z,100444.06
2022-11-30T00:43:44.519Z,100451.94
2022-11-30T00:46:12.194Z,100445.97
2022-11-30T00:48:40.525Z,100449.47
2022-11-30T00:51:10.378Z,100449.66
2022-11-30T00:53:37.990Z,100460.13
2022-11-30T00:56:05.732Z,100456.53
2022-11-30T00:58:33.124Z,100459.06
2022-11-30T01:01:09.205Z,100465.97
2022-11-30T01:03:36.991Z,100462.59
2022-11-30T01:06:05.816Z,100451.41
2022-11-30T01:08:33.122Z,100464.44
2022-11-30T01:11:31.560Z,100460.81
2022-11-30T01:14:00.421Z,100467.44
2022-11-30T01:16:31.395Z,100461.22
2022-11-30T01:18:58.775Z,100465.63
2022-11-30T01:21:28.636Z,100467.50
2022-11-30T01:23:56.301Z,100470.91
2022-11-30T01:26:24.211Z,100478.53
2022-11-30T01:28:53.680Z,100475.06
2022-11-30T01:31:23.921Z,100475.84
2022-11-30T01:33:55.327Z,100483.66
2022-11-30T01:36:26.983Z,100475.09
2022-11-30T01:38:57.464Z,100463.81
2022-11-30T01:41:30.002Z,100474.44
2022-11-30T01:44:20.138Z,100468.56
2022-11-30T01:47:11.586Z,100468.56
2022-11-30T01:49:50.207Z,100471.84
2022-11-30T01:52:22.858Z,100474.56
2022-11-30T01:55:01.983Z,100471.19
2022-11-30T01:57:38.773Z,100461.78
2022-11-30T02:00:12.738Z,100455.00
2022-11-30T02:02:57.618Z,100468.78
2022-11-30T02:05:26.356Z,100467.72
2022-11-30T02:08:00.962Z,100468.78
2022-11-30T02:10:35.998Z,100465.44
2022-11-30T02:13:24.131Z,100466.25
2022-11-30T02:16:21.437Z,100461.19
2022-11-30T02:19:12.783Z,100474.16
2022-11-30T02:22:01.218Z,100472.25
2022-11-30T02:25:14.995Z,100467.75
2022-11-30T02:28:08.076Z,100466.13
2022-11-30T02:30:40.923Z,100464.31
2022-11-30T02:33:16.492Z,100457.47
2022-11-30T02:35:54.368Z,100463.47
2022-11-30T02:38:25.641Z,100460.84
2022-11-30T02:40:53.340Z,100460.06
2022-11-30T02:43:25.304Z,100458.47
2022-11-30T02:46:20.526Z,100461.09
2022-11-30T02:48:57.099Z,100464.63
2022-11-30T02:51:32.207Z,100464.53
2022-11-30T02:54:00.460Z,100463.91
2022-11-30T02:56:28.681Z,100467.41
2022-11-30T02:58:55.873Z,100463.84
2022-11-30T03:01:25.858Z,100475.97
2022-11-30T03:03:53.372Z,100468.91
2022-11-30T03:06:20.780Z,100470.72
2022-11-30T03:08:47.698Z,100481.84
2022-11-30T03:11:15.861Z,100488.03
2022-11-30T03:13:44.201Z,100486.41
2022-11-30T03:16:13.560Z,100478.56
2022-11-30T03:18:41.413Z,100488.16
2022-11-30T03:21:10.991Z,100487.31
2022-11-30T03:23:39.132Z,100503.81
2022-11-30T03:26:08.501Z,100509.03
2022-11-30T03:28:37.067Z,100503.03
2022-11-30T03:31:04.623Z,100503.09
2022-11-30T03:33:32.074Z,100513.41
2022-11-30T03:36:05.290Z,100512.56
2022-11-30T03:38:35.047Z,100518.63
2022-11-30T03:41:14.421Z,100515.09
2022-11-30T03:43:41.824Z,100520.22
2022-11-30T03:46:09.584Z,100502.09
2022-11-30T03:48:37.024Z,100509.03
2022-11-30T03:51:13.500Z,100508.28
2022-11-30T03:53:41.583Z,100516.03
2022-11-30T03:56:11.133Z,100515.94
2022-11-30T03:58:38.916Z,100515.16
2022-11-30T04:01:14.665Z,100512.72
2022-11-30T04:03:42.589Z,100510.09
2022-11-30T04:06:11.863Z,100513.47
2022-11-30T04:08:39.749Z,100526.41
2022-11-30T04:11:08.938Z,100521.91
2022-11-30T04:13:38.165Z,100523.75
2022-11-30T04:16:13.806Z,100514.16
2022-11-30T04:18:42.110Z,100530.53
2022-11-30T04:21:10.570Z,100522.81
2022-11-30T04:23:40.109Z,100529.75
2022-11-30T04:26:11.279Z,100533.06
2022-11-30T04:28:40.080Z,100526.75
2022-11-30T04:31:09.020Z,100525.00
2022-11-30T04:33:36.638Z,100536.41
2022-11-30T04:36:06.698Z,100527.75
2022-11-30T04:38:37.043Z,100523.69
2022-11-30T04:41:13.416Z,100527.03
2022-11-30T04:43:40.695Z,100521.75
2022-11-30T04:46:08.540Z,100522.66
2022-11-30T04:48:35.683Z,100525.16
2022-11-30T04:51:06.247Z,100523.47
2022-11-30T04:53:34.923Z,100524.28
2022-11-30T04:56:11.484Z,100523.41
2022-11-30T04:58:39.647Z,100532.06
2022-11-30T05:01:07.838Z,100536.47
2022-11-30T05:03:35.441Z,100531.28
2022-11-30T05:06:04.678Z,100534.88
2022-11-30T05:08:38.833Z,100542.63
2022-11-30T05:11:05.818Z,100548.69
2022-11-30T05:13:33.177Z,100543.59
2022-11-30T05:16:01.242Z,100536.69
2022-11-30T05:18:31.853Z,100534.19
2022-11-30T05:20:59.390Z,100541.03
2022-11-30T05:23:27.817Z,100546.41
2022-11-30T05:25:55.164Z,100552.53
2022-11-30T05:28:22.490Z,100555.03
2022-11-30T05:30:50.761Z,100554.88
2022-11-30T05:33:18.133Z,100557.47
2022-11-30T05:35:45.206Z,100556.59
2022-11-30T05:38:12.571Z,100564.09
2022-11-30T05:40:39.474Z,100563.25
2022-11-30T05:43:06.589Z,100566.81
2022-11-30T05:45:33.980Z,100554.53
2022-11-30T05:48:01.463Z,100557.34
2022-11-30T05:50:28.857Z,100565.91
2022-11-30T05:53:01.113Z,100560.72
2022-11-30T05:55:29.899Z,100560.72
2022-11-30T05:57:58.909Z,100561.50
2022-11-30T06:00:26.381Z,100561.53
2022-11-30T06:03:00.384Z,100563.31
2022-11-30T06:05:28.282Z,100569.25
2022-11-30T06:07:59.914Z,100571.91
2022-11-30T06:10:29.966Z,100572.00
2022-11-30T06:12:56.951Z,100571.97
2022-11-30T06:15:24.409Z,100568.38
2022-11-30T06:17:51.825Z,100572.56
2022-11-30T06:20:18.832Z,100575.94
2022-11-30T06:22:47.092Z,100576.91
2022-11-30T06:25:15.204Z,100584.75
2022-11-30T06:27:43.904Z,100586.72
2022-11-30T06:30:12.898Z,100591.09
2022-11-30T06:32:40.449Z,100590.13
2022-11-30T06:35:08.979Z,100590.25
2022-11-30T06:37:36.182Z,100588.50
2022-11-30T06:40:07.047Z,100588.44
2022-11-30T06:42:35.061Z,100582.59
2022-11-30T06:45:02.616Z,100592.72
2022-11-30T06:47:30.046Z,100593.25
2022-11-30T06:49:58.226Z,100593.34
2022-11-30T06:52:25.708Z,100591.53
2022-11-30T06:54:53.922Z,100591.53
2022-11-30T06:57:21.594Z,100592.50
2022-11-30T06:59:48.793Z,100587.06
2022-11-30T07:02:18.500Z,100582.81
2022-11-30T07:04:46.906Z,100592.41
2022-11-30T07:07:15.615Z,100599.34
2022-11-30T07:09:42.931Z,100599.31
2022-11-30T07:12:10.284Z,100599.50
2022-11-30T07:14:37.660Z,100603.03
2022-11-30T07:17:07.213Z,100601.38
2022-11-30T07:19:34.818Z,100600.44
2022-11-30T07:22:01.957Z,100597.81
2022-11-30T07:24:47.625Z,100595.22
2022-11-30T07:27:14.958Z,100602.88
2022-11-30T07:29:42.382Z,100607.50
2022-11-30T07:32:09.501Z,100596.25
2022-11-30T07:34:36.766Z,100603.53
2022-11-30T07:37:03.695Z,100608.03
2022-11-30T07:39:30.745Z,100606.34
2022-11-30T07:41:58.138Z,100601.22
2022-11-30T07:44:26.115Z,100596.94
2022-11-30T07:47:01.296Z,100607.41
2022-11-30T07:49:28.296Z,100604.06
2022-11-30T07:51:55.771Z,100601.28
2022-11-30T07:54:23.136Z,100601.34
2022-11-30T07:56:50.595Z,100597.06
2022-11-30T07:59:18.119Z,100602.16
2022-11-30T08:01:45.685Z,100597.00
2022-11-30T08:04:14.286Z,100592.88
2022-11-30T08:06:41.430Z,100593.66
2022-11-30T08:09:16.497Z,100600.66
2022-11-30T08:11:46.196Z,100598.81
2022-11-30T08:14:13.911Z,100601.41
2022-11-30T08:16:41.092Z,100598.81
2022-11-30T08:19:10.738Z,100616.28
2022-11-30T08:21:45.150Z,100606.63
2022-11-30T08:24:14.215Z,100607.50
2022-11-30T08:26:42.943Z,100614.50
2022-11-30T08:29:11.753Z,100612.91
2022-11-30T08:31:39.453Z,100613.88
2022-11-30T08:34:11.533Z,100619.88
2022-11-30T08:36:47.186Z,100623.53
2022-11-30T08:39:19.025Z,100611.50
2022-11-30T08:41:46.235Z,100622.81
2022-11-30T08:44:13.216Z,100625.41
2022-11-30T08:46:51.656Z,100626.34
2022-11-30T08:52:17.356Z,100629.72
2022-11-30T08:54:48.847Z,100628.81
2022-11-30T08:57:35.400Z,100627.06
2022-11-30T09:00:02.704Z,100631.53
2022-11-30T09:02:29.685Z,100643.78
2022-11-30T09:04:58.114Z,100634.19
2022-11-30T09:07:26.409Z,100641.00
2022-11-30T09:09:53.881Z,100642.63
2022-11-30T09:12:21.230Z,100639.31
2022-11-30T09:14:57.272Z,100649.88
2022-11-30T09:17:25.518Z,100646.34
2022-11-30T09:19:53.032Z,100651.22
2022-11-30T09:22:21.308Z,100645.81
2022-11-30T09:24:48.488Z,100648.41
2022-11-30T09:27:16.832Z,100647.69
2022-11-30T09:29:44.207Z,100646.94
2022-11-30T09:32:11.157Z,100646.09
2022-11-30T09:34:38.203Z,100657.44
2022-11-30T09:37:05.605Z,100654.03
2022-11-30T09:39:33.046Z,100653.16
2022-11-30T09:42:18.619Z,100647.03
2022-11-30T09:45:04.874Z,100652.38
2022-11-30T09:47:47.688Z,100638.53
2022-11-30T09:50:19.310Z,100639.50
2022-11-30T09:52:55.056Z,100644.69
2022-11-30T09:55:36.388Z,100641.31
2022-11-30T09:58:05.326Z,100644.72
2022-11-30T10:00:35.234Z,100644.78
2022-11-30T10:03:06.847Z,100634.44
2022-11-30T10:05:58.206Z,100631.94
2022-11-30T10:08:54.997Z,100649.31
2022-11-30T10:11:28.399Z,100627.63
2022-11-30T10:14:12.581Z,100636.47
2022-11-30T10:16:39.601Z,100634.66
2022-11-30T10:19:54.550Z,100639.00
2022-11-30T10:22:27.394Z,100641.63
2022-11-30T10:24:57.721Z,100635.44
2022-11-30T10:27:50.145Z,100636.94
2022-11-30T10:30:24.121Z,100636.09
2022-11-30T10:32:54.373Z,100632.59
2022-11-30T10:35:51.391Z,100637.91
2022-11-30T10:38:31.136Z,100637.91
2022-11-30T10:41:04.499Z,100636.00
2022-11-30T10:43:38.476Z,100645.53
2022-11-30T10:46:05.847Z,100637.75
2022-11-30T10:48:43.739Z,100644.66
2022-11-30T10:51:12.631Z,100641.25
2022-11-30T10:53:39.882Z,100640.38
2022-11-30T10:56:10.595Z,100639.69
2022-11-30T10:58:57.279Z,100639.53
2022-11-30T11:01:39.612Z,100645.47
2022-11-30T11:04:19.299Z,100639.59
2022-11-30T11:06:49.338Z,100639.66
2022-11-30T11:09:38.706Z,100644.97
2022-11-30T11:12:27.677Z,100646.72
2022-11-30T11:15:22.615Z,100639.69
2022-11-30T11:17:50.622Z,100636.34
2022-11-30T11:20:39.231Z,100629.47
2022-11-30T11:23:27.990Z,100626.03
2022-11-30T11:25:57.550Z,100625.28
2022-11-30T11:28:25.742Z,100628.81
2022-11-30T11:30:57.547Z,100624.47
2022-11-30T11:33:29.714Z,100624.38
2022-11-30T11:36:24.550Z,100633.16
2022-11-30T11:38:51.739Z,100628.91
2022-11-30T11:41:31.757Z,100633.22
2022-11-30T11:44:11.594Z,100628.00
2022-11-30T11:46:55.780Z,100634.94
2022-11-30T11:49:26.999Z,100624.53
2022-11-30T11:52:15.963Z,100631.41
2022-11-30T11:54:58.630Z,100621.94
2022-11-30T11:57:52.299Z,100625.41
2022-11-30T12:00:21.943Z,100626.16
2022-11-30T12:02:57.903Z,100632.13
2022-11-30T12:05:32.595Z,100632.88
2022-11-30T12:08:34.064Z,100635.13
2022-11-30T12:11:14.369Z,100632.34
2022-11-30T12:13:45.871Z,100629.91
2022-11-30T12:16:15.637Z,100630.84
2022-11-30T12:18:59.210Z,100626.53
2022-11-30T12:21:48.119Z,100635.34
2022-11-30T12:24:23.998Z,100640.69
2022-11-30T12:26:58.678Z,100638.25
2022-11-30T12:29:50.874Z,100640.84
2022-11-30T12:32:26.434Z,100634.88
2022-11-30T12:35:29.843Z,100640.31
2022-11-30T12:38:35.759Z,100654.16
2022-11-30T12:41:02.954Z,100638.66
2022-11-30T12:43:48.630Z,100641.31
2022-11-30T12:46:19.476Z,100634.38
2022-11-30T12:49:28.079Z,100643.16
2022-11-30T12:52:06.994Z,100637.06
2022-11-30T12:54:40.998Z,100638.72
2022-11-30T12:57:57.731Z,100640.50
2022-11-30T13:00:30.661Z,100643.06
2022-11-30T13:03:23.838Z,100646.59
2022-11-30T13:06:00.293Z,100642.09
2022-11-30T13:08:55.374Z,100644.91
2022-11-30T13:11:32.420Z,100641.34
2022-11-30T13:14:01.165Z,100640.31
2022-11-30T13:16:31.739Z,100637.72
2022-11-30T13:19:29.335Z,100639.50
2022-11-30T13:22:05.201Z,100630.91
2022-11-30T13:24:51.475Z,100628.16
2022-11-30T13:27:29.738Z,100628.34
2022-11-30T13:30:15.424Z,100632.75
2022-11-30T13:32:57.837Z,100628.28
2022-11-30T13:35:30.633Z,100625.66
2022-11-30T13:38:28.617Z,100625.75
2022-11-30T13:40:59.448Z,100627.38
2022-11-30T13:43:35.902Z,100626.41
2022-11-30T13:46:24.552Z,100629.13
2022-11-30T13:49:20.429Z,100629.22
2022-11-30T13:52:01.425Z,100633.56
2022-11-30T13:54:42.083Z,100631.69
2022-11-30T13:57:29.725Z,100627.44
2022-11-30T14:00:02.080Z,100636.94
2022-11-30T14:02:36.670Z,100638.72
2022-11-30T14:05:19.034Z,100638.03
2022-11-30T14:08:01.336Z,100640.66
2022-11-30T14:10:31.093Z,100641.38
2022-11-30T14:13:25.494Z,100642.34
2022-11-30T14:15:54.586Z,100637.94
2022-11-30T14:18:24.774Z,100641.53
2022-11-30T14:21:21.902Z,100642.38
2022-11-30T14:24:04.220Z,100647.50
2022-11-30T14:26:45.224Z,100644.09
2022-11-30T14:29:25.249Z,100644.09
2022-11-30T14:32:01.569Z,100642.34
2022-11-30T14:34:52.542Z,100642.66
2022-11-30T14:37:24.112Z,100638.50
2022-11-30T14:39:56.877Z,100640.09
2022-11-30T14:42:32.174Z,100642.56
2022-11-30T14:45:19.836Z,100636.44
2022-11-30T14:47:52.100Z,100645.88
2022-11-30T14:50:25.621Z,100642.50
2022-11-30T14:53:07.523Z,100644.09
2022-11-30T14:56:02.005Z,100643.22
2022-11-30T14:58:50.252Z,100643.94
2022-11-30T15:01:26.913Z,100640.50
2022-11-30T15:03:58.720Z,100641.38
2022-11-30T15:06:35.233Z,100649.34
2022-11-30T15:09:02.929Z,100644.97
2022-11-30T15:11:31.516Z,100648.53
2022-11-30T15:14:09.765Z,100645.06
2022-11-30T15:16:36.968Z,100646.66
2022-11-30T15:19:37.691Z,100644.91
2022-11-30T15:22:04.965Z,100653.59
2022-11-30T15:24:32.374Z,100645.88
2022-11-30T15:27:10.948Z,100650.94
2022-11-30T15:29:47.047Z,100651.06
2022-11-30T15:32:20.780Z,100655.31
2022-11-30T15:34:56.589Z,100650.94
2022-11-30T15:37:32.494Z,100647.56
2022-11-30T15:40:02.698Z,100655.34
2022-11-30T15:42:41.748Z,100650.16
2022-11-30T15:45:24.094Z,100659.72
2022-11-30T15:47:52.243Z,100652.72
2022-11-30T15:50:28.808Z,100660.69
2022-11-30T15:53:03.129Z,100664.91
2022-11-30T15:55:48.323Z,100659.72
2022-11-30T15:58:47.667Z,100661.50
2022-11-30T16:01:25.308Z,100663.13
2022-11-30T16:03:55.766Z,100664.84
2022-11-30T16:06:28.548Z,100675.22
2022-11-30T16:08:57.595Z,100676.22
2022-11-30T16:11:25.075Z,100671.84
2022-11-30T16:13:52.476Z,100676.22
2022-11-30T16:16:31.404Z,100679.69
2022-11-30T16:18:59.974Z,100676.06
2022-11-30T16:21:28.267Z,100682.16
2022-11-30T16:23:55.900Z,100685.41
2022-11-30T16:26:43.658Z,100685.56
2022-11-30T16:29:10.677Z,100687.41
2022-11-30T16:31:39.064Z,100684.72
2022-11-30T16:34:08.954Z,100693.50
2022-11-30T16:36:38.815Z,100692.41
2022-11-30T16:39:12.635Z,100701.03
2022-11-30T16:41:39.903Z,100694.13
2022-11-30T16:44:14.097Z,100696.75
2022-11-30T16:46:41.552Z,100695.94
2022-11-30T16:49:09.907Z,100695.06
2022-11-30T16:51:38.458Z,100696.00
2022-11-30T16:54:06.296Z,100692.41
2022-11-30T16:56:34.129Z,100702.81
2022-11-30T16:59:01.983Z,100699.34
2022-11-30T17:01:46.395Z,100711.63
2022-11-30T17:04:20.866Z,100709.81
2022-11-30T17:06:52.783Z,100708.16
2022-11-30T17:09:23.196Z,100704.63
2022-11-30T17:11:51.802Z,100706.34
2022-11-30T17:14:21.211Z,100708.19
2022-11-30T17:16:49.839Z,100706.50
2022-11-30T17:19:20.289Z,100718.63
2022-11-30T17:21:49.105Z,100713.38
2022-11-30T17:24:17.787Z,100718.56
2022-11-30T17:26:45.274Z,100715.88
2022-11-30T17:29:12.568Z,100713.09
2022-11-30T17:31:40.432Z,100714.75
2022-11-30T17:34:09.087Z,100719.84
2022-11-30T17:36:36.511Z,100712.84
2022-11-30T17:39:08.613Z,100720.72
2022-11-30T17:41:42.247Z,100725.13
2022-11-30T17:44:10.604Z,100730.38
2022-11-30T17:46:40.467Z,100726.75
2022-11-30T17:49:15.346Z,100728.47
2022-11-30T17:51:42.994Z,100730.28
2022-11-30T17:54:11.748Z,100729.31
2022-11-30T17:56:41.229Z,100729.34
2022-11-30T17:59:09.068Z,100733.69
2022-11-30T18:01:36.267Z,100732.88
2022-11-30T18:04:04.620Z,100730.34
2022-11-30T18:06:32.518Z,100732.97
2022-11-30T18:09:00.575Z,100734.56
2022-11-30T18:11:29.787Z,100731.19
2022-11-30T18:14:00.285Z,100740.81
2022-11-30T18:16:32.750Z,100740.75
2022-11-30T18:19:00.545Z,100737.31
2022-11-30T18:21:30.147Z,100736.38
2022-11-30T18:23:59.906Z,100739.13
2022-11-30T18:26:29.697Z,100741.72
2022-11-30T18:29:03.011Z,100748.50
2022-11-30T18:31:31.856Z,100752.88
2022-11-30T18:34:01.733Z,100748.56
2022-11-30T18:36:30.613Z,100754.63
2022-11-30T18:38:58.765Z,100750.22
2022-11-30T18:41:26.975Z,100751.09
2022-11-30T18:43:55.373Z,100754.50
2022-11-30T18:46:24.338Z,100743.41
2022-11-30T18:48:53.519Z,100750.41
2022-11-30T18:51:24.499Z,100745.13
2022-11-30T18:54:02.968Z,100750.28
2022-11-30T18:56:33.847Z,100754.25
2022-11-30T18:59:07.578Z,100751.84
2022-11-30T19:01:37.480Z,100754.44
2022-11-30T19:04:08.424Z,100756.97
2022-11-30T19:06:36.501Z,100757.72
2022-11-30T19:09:08.922Z,100760.25
2022-11-30T19:11:40.327Z,100761.19
2022-11-30T19:14:12.010Z,100764.72
2022-11-30T19:16:39.628Z,100752.44
2022-11-30T19:19:13.629Z,100762.81
2022-11-30T19:21:48.098Z,100761.91
2022-11-30T19:24:17.769Z,100760.13
2022-11-30T19:26:46.549Z,100761.13
2022-11-30T19:29:15.109Z,100759.50
2022-11-30T19:31:43.240Z,100755.84
2022-11-30T19:34:13.158Z,100759.44
2022-11-30T19:36:41.063Z,100759.59
2022-11-30T19:39:10.989Z,100766.25
2022-11-30T19:41:39.496Z,100763.75
2022-11-30T19:44:07.363Z,100767.06
2022-11-30T19:46:37.010Z,100772.22
2022-11-30T19:49:06.040Z,100761.88
2022-11-30T19:51:34.521Z,100762.66
2022-11-30T19:54:02.733Z,100769.66
2022-11-30T19:56:33.077Z,100766.88
2022-11-30T19:59:06.095Z,100775.53
2022-11-30T20:01:34.871Z,100780.72
2022-11-30T20:04:06.177Z,100773.84
2022-11-30T20:06:37.343Z,100772.94
2022-11-30T20:09:08.203Z,100781.47
2022-11-30T20:11:36.632Z,100775.47
2022-11-30T20:14:05.305Z,100786.75
2022-11-30T20:16:34.422Z,100778.84
2022-11-30T20:19:03.193Z,100785.63
2022-11-30T20:21:34.054Z,100790.13
2022-11-30T20:24:06.789Z,100786.66
2022-11-30T20:26:40.795Z,100779.66
2022-11-30T20:29:17.347Z,100782.41
2022-11-30T20:31:57.297Z,100778.78
2022-11-30T20:34:28.587Z,100779.78
2022-11-30T20:37:00.349Z,100778.84
2022-11-30T20:39:28.286Z,100781.19
2022-11-30T20:41:55.823Z,100782.22
2022-11-30T20:44:23.760Z,100788.25
2022-11-30T20:46:52.716Z,100783.97
2022-11-30T20:49:22.074Z,100791.97
2022-11-30T20:51:51.082Z,100787.38
2022-11-30T20:54:18.780Z,100780.41
2022-11-30T20:56:50.914Z,100790.84
2022-11-30T20:59:24.287Z,100786.50
2022-11-30T21:01:51.492Z,100793.38
2022-11-30T21:04:19.380Z,100797.66
2022-11-30T21:06:47.496Z,100788.94
2022-11-30T21:09:18.011Z,100785.88
2022-11-30T21:11:46.486Z,100784.88
2022-11-30T21:14:14.781Z,100784.13
2022-11-30T21:16:43.005Z,100789.34
2022-11-30T21:19:12.375Z,100785.78
2022-11-30T21:21:39.840Z,100788.38
2022-11-30T21:24:09.677Z,100788.25
2022-11-30T21:26:42.331Z,100793.38
2022-11-30T21:29:17.542Z,100784.72
2022-11-30T21:31:46.212Z,100783.13
2022-11-30T21:34:14.427Z,100791.78
2022-11-30T21:36:42.057Z,100784.88
2022-11-30T21:39:09.936Z,100786.66
2022-11-30T21:41:43.226Z,100788.31
2022-11-30T21:44:14.349Z,100788.31
2022-11-30T21:46:45.729Z,100778.06
2022-11-30T21:49:15.031Z,100785.78
2022-11-30T21:51:42.961Z,100778.03
2022-11-30T21:54:13.203Z,100785.16
2022-11-30T21:56:42.844Z,100781.69
2022-11-30T21:59:14.055Z,100772.06
2022-11-30T22:01:43.385Z,100782.41
2022-11-30T22:04:12.647Z,100777.19
2022-11-30T22:06:42.534Z,100774.59
2022-11-30T22:09:16.460Z,100775.38
2022-11-30T22:11:45.648Z,100776.38
2022-11-30T22:14:16.975Z,100773.88
2022-11-30T22:16:44.188Z,100780.00
2022-11-30T22:19:11.527Z,100779.13
2022-11-30T22:21:41.338Z,100780.81
2022-11-30T22:24:13.658Z,100773.84
2022-11-30T22:26:44.034Z,100774.59
2022-11-30T22:29:17.212Z,100778.06
2022-11-30T22:31:47.025Z,100772.78
2022-11-30T22:34:15.660Z,100781.66
2022-11-30T22:36:44.644Z,100778.03
2022-11-30T22:39:13.357Z,100781.66
2022-11-30T22:41:45.113Z,100785.00
2022-11-30T22:44:17.915Z,100779.78
2022-11-30T22:46:45.321Z,100775.47
2022-11-30T22:49:20.286Z,100779.94
2022-11-30T22:51:49.852Z,100780.81
2022-11-30T22:54:17.853Z,100776.47
2022-11-30T22:56:46.793Z,100768.59
2022-11-30T22:59:15.352Z,100773.06
2022-11-30T23:01:45.979Z,100773.19
2022-11-30T23:04:15.830Z,100774.81
2022-11-30T23:06:44.813Z,100769.53
2022-11-30T23:09:15.519Z,100770.53
2022-11-30T23:11:43.174Z,100770.53
2022-11-30T23:14:12.344Z,100769.69
2022-11-30T23:16:40.962Z,100778.53
2022-11-30T23:19:09.081Z,100776.53
2022-11-30T23:21:41.648Z,100771.94
2022-11-30T23:24:16.621Z,100755.00
2022-11-30T23:26:44.255Z,100760.19
2022-11-30T23:29:14.437Z,100759.44
2022-11-30T23:31:43.571Z,100762.91
2022-11-30T23:34:18.256Z,100768.00
2022-11-30T23:36:46.980Z,100758.13
2022-11-30T23:39:16.395Z,100761.94
2022-11-30T23:41:43.552Z,100757.03
2022-11-30T23:44:12.092Z,100753.09
2022-11-30T23:46:39.079Z,100758.78
2022-11-30T23:49:06.845Z,100748.38
2022-11-30T23:51:34.393Z,100750.16
2022-11-30T23:54:01.872Z,100748.47
2022-11-30T23:56:29.217Z,100753.38
2022-11-30T23:58:56.202Z,100747.38
